createdAt,value
2022-08-09T00:00:00.595Z,3.50
2022-08-09T00:02:33.138Z,3.50
2022-08-09T00:06:12.062Z,3.15
2022-08-09T00:08:48.220Z,3.00
2022-08-09T00:11:24.775Z,3.03
2022-08-09T00:13:52.037Z,3.15
2022-08-09T00:16:26.368Z,3.17
2022-08-09T00:19:03.974Z,3.15
2022-08-09T00:21:38.176Z,3.30
2022-08-09T00:24:21.685Z,3.40
2022-08-09T00:26:50.663Z,3.30
2022-08-09T00:29:39.418Z,3.37
2022-08-09T00:32:44.853Z,3.17
2022-08-09T00:35:13.188Z,3.30
2022-08-09T00:37:39.812Z,3.35
2022-08-09T00:40:16.749Z,3.20
2022-08-09T00:44:13.488Z,2.70
2022-08-09T00:46:56.401Z,2.45
2022-08-09T00:49:24.323Z,2.58
2022-08-09T00:51:56.443Z,2.45
2022-08-09T00:54:35.389Z,2.40
2022-08-09T00:57:10.248Z,2.45
2022-08-09T00:59:41.208Z,2.28
2022-08-09T01:02:20.609Z,2.53
2022-08-09T01:05:50.728Z,2.30
2022-08-09T01:08:29.230Z,2.30
2022-08-09T01:12:24.470Z,2.25
2022-08-09T01:15:53.199Z,2.30
2022-08-09T01:18:29.822Z,2.20
2022-08-09T01:21:44.712Z,2.33
2022-08-09T01:24:32.938Z,2.25
2022-08-09T01:27:11.263Z,2.25
2022-08-09T01:29:56.106Z,2.40
2022-08-09T01:32:32.675Z,2.45
2022-08-09T01:35:29.148Z,2.47
2022-08-09T01:38:15.471Z,2.47
2022-08-09T01:41:32.090Z,2.40
2022-08-09T01:44:02.561Z,2.33
2022-08-09T01:46:31.844Z,2.40
2022-08-09T01:49:10.566Z,2.53
2022-08-09T01:51:57.963Z,2.53
2022-08-09T01:54:37.373Z,2.60
2022-08-09T01:57:14.803Z,2.62
2022-08-09T01:59:51.901Z,2.78
2022-08-09T02:02:31.086Z,2.60
2022-08-09T02:05:05.387Z,2.75
2022-08-09T02:08:38.807Z,2.70
2022-08-09T02:11:24.732Z,2.70
2022-08-09T02:14:15.911Z,2.50
2022-08-09T02:17:14.471Z,2.50
2022-08-09T02:19:56.138Z,2.50
2022-08-09T02:22:46.435Z,2.50
2022-08-09T02:25:42.544Z,2.30
2022-08-09T02:28:34.391Z,2.37
2022-08-09T02:31:11.269Z,2.40
2022-08-09T02:34:07.330Z,2.40
2022-08-09T02:36:42.672Z,2.53
2022-08-09T02:39:19.746Z,2.75
2022-08-09T02:42:05.766Z,2.67
2022-08-09T02:44:37.547Z,2.75
2022-08-09T02:47:07.473Z,2.55
2022-08-09T02:50:01.321Z,2.70
2022-08-09T02:52:38.359Z,3.00
2022-08-09T02:55:20.821Z,2.85
2022-08-09T02:58:00.201Z,3.22
2022-08-09T03:00:59.817Z,3.17
2022-08-09T03:04:12.894Z,3.15
2022-08-09T03:06:41.295Z,3.10
2022-08-09T03:09:07.710Z,3.28
2022-08-09T03:12:06.183Z,3.03
2022-08-09T03:14:39.523Z,3.12
2022-08-09T03:17:07.739Z,3.20
2022-08-09T03:19:57.966Z,3.15
2022-08-09T03:22:30.409Z,3.15
2022-08-09T03:25:16.183Z,3.20
2022-08-09T03:27:55.199Z,3.12
2022-08-09T03:30:30.070Z,3.28
2022-08-09T03:33:17.428Z,3.20
2022-08-09T03:36:13.381Z,3.08
2022-08-09T03:38:43.243Z,3.08
2022-08-09T03:41:15.543Z,3.10
2022-08-09T03:44:02.981Z,3.10
2022-08-09T03:46:36.771Z,3.15
2022-08-09T03:49:08.852Z,3.40
2022-08-09T03:51:55.622Z,3.47
2022-08-09T03:54:29.274Z,3.55
2022-08-09T03:56:57.966Z,3.50
2022-08-09T03:59:27.310Z,3.58
2022-08-09T04:02:09.163Z,3.30
2022-08-09T04:04:38.869Z,4.57
2022-08-09T04:07:05.735Z,6.03
2022-08-09T04:09:47.788Z,6.00
2022-08-09T04:12:45.815Z,4.53
2022-08-09T04:15:29.654Z,4.18
2022-08-09T04:18:44.100Z,7.12
2022-08-09T04:21:12.294Z,10.57
2022-08-09T04:23:38.809Z,7.12
2022-08-09T04:26:06.137Z,5.65
2022-08-09T04:28:36.432Z,4.82
2022-08-09T04:31:12.919Z,5.03
2022-08-09T04:33:47.656Z,4.80
2022-08-09T04:36:24.509Z,8.85
2022-08-09T04:38:51.176Z,10.45
2022-08-09T04:41:18.789Z,5.85
2022-08-09T04:43:53.760Z,5.00
2022-08-09T04:46:38.072Z,6.35
2022-08-09T04:49:40.815Z,4.65
2022-08-09T04:52:26.502Z,4.87
2022-08-09T04:55:00.394Z,4.75
2022-08-09T04:57:26.880Z,4.53
2022-08-09T05:00:21.698Z,4.07
2022-08-09T05:02:52.546Z,4.65
2022-08-09T05:05:31.382Z,4.15
2022-08-09T05:07:59.004Z,5.53
2022-08-09T05:10:25.736Z,5.62
2022-08-09T05:12:52.443Z,5.50
2022-08-09T05:15:38.707Z,4.32
2022-08-09T05:18:37.642Z,4.72
2022-08-09T05:21:09.982Z,4.78
2022-08-09T05:23:56.612Z,4.65
2022-08-09T05:26:36.269Z,4.03
2022-08-09T05:29:04.141Z,3.85
2022-08-09T05:31:44.207Z,3.80
2022-08-09T05:34:17.086Z,3.90
2022-08-09T05:36:44.318Z,4.47
2022-08-09T05:39:28.245Z,4.22
2022-08-09T05:41:55.897Z,4.32
2022-08-09T05:44:29.088Z,4.12
2022-08-09T05:46:59.850Z,3.95
2022-08-09T05:50:25.039Z,4.40
2022-08-09T05:53:02.116Z,3.80
2022-08-09T05:55:28.564Z,3.80
2022-08-09T05:57:58.417Z,4.30
2022-08-09T06:00:29.559Z,4.55
2022-08-09T06:03:00.725Z,4.18
2022-08-09T06:05:50.278Z,4.10
2022-08-09T06:08:25.108Z,4.45
2022-08-09T06:10:54.909Z,4.40
2022-08-09T06:13:21.523Z,4.18
2022-08-09T06:15:52.668Z,4.22
2022-08-09T06:18:24.008Z,4.40
2022-08-09T06:20:57.903Z,4.30
2022-08-09T06:23:57.994Z,4.03
2022-08-09T06:26:28.145Z,3.60
2022-08-09T06:29:00.004Z,3.60
2022-08-09T06:31:40.633Z,3.70
2022-08-09T06:35:02.896Z,3.80
2022-08-09T06:37:33.392Z,4.40
2022-08-09T06:40:23.897Z,4.20
2022-08-09T06:42:50.689Z,4.15
2022-08-09T06:46:05.325Z,4.30
2022-08-09T06:48:37.090Z,4.47
2022-08-09T06:51:10.161Z,4.15
2022-08-09T06:53:38.245Z,4.20
2022-08-09T06:56:06.572Z,4.10
2022-08-09T07:00:46.672Z,4.32
2022-08-09T07:03:28.041Z,3.55
2022-08-09T07:06:02.952Z,3.55
2022-08-09T07:08:30.783Z,4.05
2022-08-09T07:10:57.038Z,3.92
2022-08-09T07:13:28.056Z,3.58
2022-08-09T07:16:39.825Z,4.03
2022-08-09T07:19:15.828Z,4.35
2022-08-09T07:21:57.846Z,4.43
2022-08-09T07:24:32.664Z,4.10
2022-08-09T07:27:10.994Z,4.32
2022-08-09T07:29:57.007Z,4.40
2022-08-09T07:32:32.474Z,4.93
2022-08-09T07:35:02.760Z,4.60
2022-08-09T07:37:44.218Z,4.28
2022-08-09T07:40:20.231Z,3.95
2022-08-09T07:42:54.428Z,4.20
2022-08-09T07:45:39.388Z,4.07
2022-08-09T07:48:08.270Z,3.53
2022-08-09T07:51:09.987Z,3.90
2022-08-09T07:54:31.207Z,3.67
2022-08-09T07:56:58.436Z,3.95
2022-08-09T07:59:45.874Z,4.00
2022-08-09T08:02:22.662Z,4.07
2022-08-09T08:04:49.402Z,4.20
2022-08-09T08:08:06.208Z,4.20
2022-08-09T08:12:12.144Z,4.53
2022-08-09T08:14:53.932Z,4.28
2022-08-09T08:17:35.127Z,4.25
2022-08-09T08:20:27.296Z,4.40
2022-08-09T08:23:01.279Z,4.47
2022-08-09T08:25:44.201Z,4.80
2022-08-09T08:28:14.369Z,4.80
2022-08-09T08:30:42.315Z,5.57
2022-08-09T08:33:11.770Z,4.90
2022-08-09T08:35:58.617Z,4.40
2022-08-09T08:38:28.067Z,4.47
2022-08-09T08:40:55.519Z,8.07
2022-08-09T08:43:23.265Z,14.68
2022-08-09T08:45:53.422Z,7.18
2022-08-09T08:48:31.178Z,8.88
2022-08-09T08:50:57.922Z,6.93
2022-08-09T08:53:25.202Z,7.07
2022-08-09T08:56:04.520Z,6.78
2022-08-09T08:58:31.701Z,7.20
2022-08-09T09:00:59.400Z,11.88
2022-08-09T09:03:37.538Z,10.40
2022-08-09T09:06:06.696Z,6.15
2022-08-09T09:08:38.103Z,5.85
2022-08-09T09:11:07.800Z,6.53
2022-08-09T09:13:50.250Z,8.07
2022-08-09T09:16:30.721Z,8.23
2022-08-09T09:22:28.624Z,6.80
2022-08-09T09:26:00.540Z,6.60
2022-08-09T09:29:02.803Z,6.90
2022-08-09T09:32:06.616Z,7.37
2022-08-09T09:34:44.732Z,7.20
2022-08-09T09:37:16.472Z,5.85
2022-08-09T09:39:55.475Z,5.53
2022-08-09T09:42:25.575Z,6.32
2022-08-09T09:44:59.757Z,7.20
2022-08-09T09:47:28.525Z,7.45
2022-08-09T09:50:15.446Z,8.05
2022-08-09T09:52:54.001Z,6.40
2022-08-09T09:55:31.897Z,7.15
2022-08-09T09:58:17.318Z,18.77
2022-08-09T10:00:54.373Z,13.93
2022-08-09T10:03:56.407Z,16.05
2022-08-09T10:06:32.515Z,20.10
2022-08-09T10:09:02.935Z,18.55
2022-08-09T10:12:04.466Z,15.75
2022-08-09T10:14:47.965Z,8.30
2022-08-09T10:17:24.320Z,6.75
2022-08-09T10:20:27.080Z,6.80
2022-08-09T10:23:09.777Z,7.90
2022-08-09T10:26:07.218Z,6.62
2022-08-09T10:28:39.859Z,5.85
2022-08-09T10:34:09.823Z,5.43
2022-08-09T10:36:49.214Z,5.12
2022-08-09T10:39:19.500Z,5.62
2022-08-09T10:41:47.629Z,6.43
2022-08-09T10:44:21.974Z,9.32
2022-08-09T10:50:14.875Z,10.45
2022-08-09T10:54:05.076Z,10.80
2022-08-09T10:56:37.147Z,10.65
2022-08-09T10:59:55.787Z,9.98
2022-08-09T11:03:17.995Z,7.37
2022-08-09T11:06:22.861Z,10.20
2022-08-09T11:09:15.358Z,7.80
2022-08-09T11:13:51.380Z,7.05
2022-08-09T11:16:37.792Z,9.48
2022-08-09T11:19:09.807Z,5.78
2022-08-09T11:25:18.302Z,6.30
2022-08-09T11:28:09.304Z,5.68
2022-08-09T11:30:57.811Z,5.20
2022-08-09T11:33:51.208Z,5.93
2022-08-09T11:36:35.527Z,6.50
2022-08-09T11:39:05.553Z,6.25
2022-08-09T11:41:37.557Z,7.25
2022-08-09T11:44:05.252Z,7.57
2022-08-09T11:46:58.467Z,11.85
2022-08-09T11:50:53.142Z,13.18
2022-08-09T11:54:01.832Z,11.98
2022-08-09T11:56:34.315Z,11.88
2022-08-09T11:59:12.443Z,10.65
2022-08-09T12:02:16.155Z,10.38
2022-08-09T12:04:45.761Z,8.15
2022-08-09T12:07:14.294Z,11.80
2022-08-09T12:09:50.330Z,11.10
2022-08-09T12:12:29.453Z,11.20
2022-08-09T12:15:07.715Z,5.68
2022-08-09T12:17:43.677Z,4.97
2022-08-09T12:20:22.219Z,5.55
2022-08-09T12:22:56.179Z,6.15
2022-08-09T12:25:36.157Z,5.68
2022-08-09T12:28:58.338Z,5.93
2022-08-09T12:31:59.406Z,6.35
2022-08-09T12:34:48.889Z,5.35
2022-08-09T12:37:23.699Z,7.10
2022-08-09T12:40:01.289Z,6.03
2022-08-09T12:42:31.558Z,6.00
2022-08-09T12:44:59.415Z,7.20
2022-08-09T12:47:27.728Z,6.35
2022-08-09T12:50:19.866Z,6.15
2022-08-09T12:53:08.459Z,6.65
2022-08-09T12:56:15.441Z,6.15
2022-08-09T12:59:16.386Z,6.20
2022-08-09T13:02:00.909Z,5.87
2022-08-09T13:04:37.664Z,7.95
2022-08-09T13:07:19.858Z,9.05
2022-08-09T13:10:01.925Z,9.93
2022-08-09T13:12:30.861Z,8.00
2022-08-09T13:15:07.183Z,6.07
2022-08-09T13:18:02.841Z,5.32
2022-08-09T13:20:37.363Z,8.20
2022-08-09T13:24:42.617Z,10.07
2022-08-09T13:27:26.569Z,11.98
2022-08-09T13:30:50.372Z,11.48
2022-08-09T13:34:40.353Z,9.30
2022-08-09T13:37:08.054Z,8.68
2022-08-09T13:41:56.661Z,11.75
2022-08-09T13:44:26.487Z,9.55
2022-08-09T13:47:27.028Z,8.00
2022-08-09T13:50:18.237Z,8.52
2022-08-09T13:52:57.178Z,8.25
2022-08-09T13:55:29.001Z,7.22
2022-08-09T13:57:58.399Z,8.45
2022-08-09T14:00:29.470Z,8.40
2022-08-09T14:03:03.125Z,8.38
2022-08-09T14:05:59.218Z,9.05
2022-08-09T14:08:30.174Z,9.20
2022-08-09T14:10:59.429Z,9.63
2022-08-09T14:14:16.199Z,10.05
2022-08-09T14:16:53.800Z,8.32
2022-08-09T14:19:21.958Z,9.07
2022-08-09T14:21:50.358Z,9.52
2022-08-09T14:24:18.514Z,9.55
2022-08-09T14:26:51.224Z,7.50
2022-08-09T14:30:18.682Z,6.95
2022-08-09T14:33:08.276Z,6.00
2022-08-09T14:35:52.052Z,4.97
2022-08-09T14:38:19.502Z,4.90
2022-08-09T14:41:04.149Z,4.70
2022-08-09T14:43:47.112Z,4.90
2022-08-09T14:46:54.647Z,5.90
2022-08-09T14:49:34.628Z,7.93
2022-08-09T14:52:06.866Z,6.45
2022-08-09T14:54:33.979Z,6.85
2022-08-09T14:57:00.461Z,8.52
2022-08-09T14:59:27.448Z,8.63
2022-08-09T15:01:55.319Z,9.00
2022-08-09T15:04:23.586Z,7.97
2022-08-09T15:06:51.356Z,8.30
2022-08-09T15:10:03.314Z,7.97
2022-08-09T15:12:34.999Z,7.45
2022-08-09T15:15:02.373Z,7.53
2022-08-09T15:17:29.133Z,7.68
2022-08-09T15:20:02.342Z,8.00
2022-08-09T15:22:29.346Z,7.50
2022-08-09T15:24:56.337Z,8.10
2022-08-09T15:27:22.737Z,8.88
2022-08-09T15:30:57.625Z,9.93
2022-08-09T15:34:18.191Z,11.10
2022-08-09T15:37:01.145Z,9.38
2022-08-09T15:39:34.424Z,9.82
2022-08-09T15:42:01.723Z,9.45
2022-08-09T15:44:28.841Z,7.85
2022-08-09T15:46:59.996Z,5.50
2022-08-09T15:49:27.268Z,5.72
2022-08-09T15:52:02.728Z,6.05
2022-08-09T15:54:46.100Z,5.30
2022-08-09T15:57:18.995Z,5.07
2022-08-09T16:00:03.634Z,5.25
2022-08-09T16:02:29.921Z,5.00
2022-08-09T16:04:56.220Z,5.00
2022-08-09T16:07:22.500Z,5.07
2022-08-09T16:10:04.131Z,5.35
2022-08-09T16:12:32.399Z,5.05
2022-08-09T16:14:59.425Z,5.20
2022-08-09T16:17:28.988Z,4.60
2022-08-09T16:20:04.517Z,5.10
2022-08-09T16:22:36.534Z,5.10
2022-08-09T16:25:09.921Z,4.87
2022-08-09T16:27:36.889Z,4.93
2022-08-09T16:30:06.334Z,5.00
2022-08-09T16:32:54.274Z,4.87
2022-08-09T16:35:53.012Z,4.28
2022-08-09T16:38:24.293Z,4.25
2022-08-09T16:40:51.775Z,4.20
2022-08-09T16:43:18.429Z,4.20
2022-08-09T16:45:47.309Z,4.50
2022-08-09T16:48:38.162Z,4.12
2022-08-09T16:51:14.202Z,3.67
2022-08-09T16:54:02.525Z,3.95
2022-08-09T16:56:49.071Z,3.58
2022-08-09T16:59:16.071Z,3.70
2022-08-09T17:01:49.063Z,3.87
2022-08-09T17:04:25.567Z,4.50
2022-08-09T17:08:41.483Z,5.87
2022-08-09T17:11:13.578Z,5.85
2022-08-09T17:13:41.639Z,6.15
2022-08-09T17:16:11.676Z,6.00
2022-08-09T17:18:38.700Z,4.85
2022-08-09T17:21:05.206Z,4.93
2022-08-09T17:23:37.027Z,5.68
2022-08-09T17:26:53.398Z,5.90
2022-08-09T17:29:20.951Z,5.85
2022-08-09T17:31:49.296Z,6.32
2022-08-09T17:35:00.962Z,7.32
2022-08-09T17:37:29.675Z,5.72
2022-08-09T17:39:56.389Z,5.50
2022-08-09T17:42:41.777Z,5.65
2022-08-09T17:45:16.220Z,8.93
2022-08-09T17:47:55.847Z,7.22
2022-08-09T17:50:36.827Z,4.10
2022-08-09T17:53:10.414Z,4.30
2022-08-09T17:55:48.801Z,4.22
2022-08-09T17:58:18.414Z,4.30
2022-08-09T18:00:48.097Z,4.55
2022-08-09T18:03:15.385Z,4.45
2022-08-09T18:05:44.658Z,4.47
2022-08-09T18:08:13.282Z,4.43
2022-08-09T18:10:39.711Z,3.60
2022-08-09T18:13:42.911Z,3.85
2022-08-09T18:16:29.122Z,4.30
2022-08-09T18:18:57.437Z,4.10
2022-08-09T18:21:26.011Z,3.30
2022-08-09T18:24:10.375Z,3.17
2022-08-09T18:26:46.665Z,3.10
2022-08-09T18:30:39.810Z,3.00
2022-08-09T18:33:15.710Z,3.05
2022-08-09T18:35:59.126Z,3.40
2022-08-09T18:38:27.008Z,3.10
2022-08-09T18:40:54.793Z,3.12
2022-08-09T18:43:22.251Z,3.70
2022-08-09T18:46:46.177Z,3.78
2022-08-09T18:49:32.110Z,2.92
2022-08-09T18:51:59.686Z,3.85
2022-08-09T18:54:29.871Z,5.60
2022-08-09T18:57:05.429Z,5.53
2022-08-09T18:59:37.459Z,4.50
2022-08-09T19:02:21.157Z,4.30
2022-08-09T19:05:03.442Z,4.30
2022-08-09T19:07:32.340Z,4.18
2022-08-09T19:10:14.781Z,3.47
2022-08-09T19:12:56.087Z,3.15
2022-08-09T19:15:28.128Z,3.30
2022-08-09T19:18:05.460Z,4.53
2022-08-09T19:20:34.450Z,4.05
2022-08-09T19:23:08.155Z,4.10
2022-08-09T19:26:02.280Z,4.32
2022-08-09T19:28:38.140Z,3.78
2022-08-09T19:31:15.131Z,3.55
2022-08-09T19:33:44.118Z,4.00
2022-08-09T19:36:15.442Z,4.20
2022-08-09T19:39:05.841Z,4.45
2022-08-09T19:41:42.872Z,4.72
2022-08-09T19:44:24.665Z,4.65
2022-08-09T19:46:53.358Z,4.70
2022-08-09T19:50:07.374Z,4.47
2022-08-09T19:52:49.661Z,3.65
2022-08-09T19:55:25.846Z,3.30
2022-08-09T19:58:06.294Z,3.00
2022-08-09T20:00:47.629Z,2.80
2022-08-09T20:04:12.665Z,2.70
2022-08-09T20:06:45.669Z,2.65
2022-08-09T20:09:43.659Z,2.65
2022-08-09T20:12:29.822Z,2.70
2022-08-09T20:15:04.654Z,2.83
2022-08-09T20:19:42.966Z,3.00
2022-08-09T20:22:14.901Z,3.00
2022-08-09T20:24:54.122Z,2.85
2022-08-09T20:27:29.374Z,2.80
2022-08-09T20:29:57.884Z,3.00
2022-08-09T20:32:30.186Z,2.95
2022-08-09T20:34:59.904Z,2.90
2022-08-09T20:37:37.920Z,3.03
2022-08-09T20:40:51.316Z,3.00
2022-08-09T20:43:25.315Z,2.90
2022-08-09T20:46:01.507Z,3.05
2022-08-09T20:48:44.478Z,3.45
2022-08-09T20:51:21.811Z,4.10
2022-08-09T20:53:50.534Z,4.12
2022-08-09T20:56:21.862Z,4.18
2022-08-09T20:58:50.693Z,4.37
2022-08-09T21:01:34.400Z,4.15
2022-08-09T21:05:52.733Z,3.87
2022-08-09T21:08:36.523Z,6.20
2022-08-09T21:11:06.466Z,5.80
2022-08-09T21:14:35.800Z,4.25
2022-08-09T21:18:22.256Z,3.97
2022-08-09T21:20:54.630Z,3.75
2022-08-09T21:23:35.985Z,4.20
2022-08-09T21:26:15.532Z,4.45
2022-08-09T21:28:51.845Z,4.32
2022-08-09T21:31:22.634Z,4.55
2022-08-09T21:33:56.689Z,4.50
2022-08-09T21:36:27.929Z,4.45
2022-08-09T21:38:57.925Z,4.22
2022-08-09T21:42:03.931Z,4.15
2022-08-09T21:44:35.309Z,3.72
2022-08-09T21:47:08.611Z,3.67
2022-08-09T21:49:39.656Z,3.50
2022-08-09T21:52:14.437Z,3.35
2022-08-09T21:54:49.523Z,3.60
2022-08-09T21:57:38.174Z,3.78
2022-08-09T22:00:35.662Z,3.72
2022-08-09T22:03:04.706Z,3.95
2022-08-09T22:05:35.681Z,4.35
2022-08-09T22:08:05.682Z,4.90
2022-08-09T22:10:32.087Z,5.95
2022-08-09T22:12:59.690Z,5.65
2022-08-09T22:15:34.984Z,5.47
2022-08-09T22:18:03.701Z,4.90
2022-08-09T22:20:31.460Z,4.32
2022-08-09T22:22:57.978Z,4.18
2022-08-09T22:26:05.462Z,4.00
2022-08-09T22:32:30.246Z,4.28
2022-08-09T22:35:02.618Z,4.60
2022-08-09T22:37:40.101Z,4.35
2022-08-09T22:40:08.628Z,4.37
2022-08-09T22:42:35.058Z,4.10
2022-08-09T22:48:12.786Z,4.07
2022-08-09T22:51:00.518Z,3.65
2022-08-09T22:53:44.218Z,3.45
2022-08-09T22:56:33.050Z,3.15
2022-08-09T22:59:05.862Z,3.28
2022-08-09T23:02:22.725Z,2.80
2022-08-09T23:04:53.710Z,2.70
2022-08-09T23:08:22.073Z,2.80
2022-08-09T23:10:56.407Z,2.67
2022-08-09T23:13:23.015Z,2.58
2022-08-09T23:16:03.079Z,2.80
2022-08-09T23:18:30.476Z,2.60
2022-08-09T23:20:57.017Z,2.80
2022-08-09T23:23:23.361Z,3.20
2022-08-09T23:25:50.059Z,3.62
2022-08-09T23:28:16.435Z,3.90
2022-08-09T23:30:50.827Z,3.70
2022-08-09T23:33:17.858Z,3.40
2022-08-09T23:36:05.945Z,3.25
2022-08-09T23:38:34.181Z,3.10
2022-08-09T23:41:01.258Z,2.80
2022-08-09T23:43:27.982Z,2.80
2022-08-09T23:45:54.433Z,2.72
2022-08-09T23:48:20.692Z,2.85
2022-08-09T23:50:47.000Z,2.95
2022-08-09T23:53:13.280Z,3.15
2022-08-09T23:55:40.528Z,3.08
2022-08-09T23:58:26.136Z,3.10
